KSDF Airport Diagram

We have created a template for each of the higher traffic airports in the vZID airspace. They include KCMH, KCRW, KCVG, KDAY, KIND, KLEX and KSDF. You wil find usefull information including the airport diagram, weather, and specific airport procedures.

KSDF Weather

[Source: ADDS]
METAR
KSDF 230213Z 09007KT 10SM BKN026 OVC070 08/00 A3026 RMK AO2 T00780000 =
KSDF 222328Z 2300/2406 08009KT P6SM OVC060 TEMPO 2304/2306 BKN026 FM230600 09005KT P6SM OVC022 FM230800 09005KT P6SM -SHRA OVC015 FM231200 11006KT 5SM -SHRA VCTS BKN008 OVC012CB FM231800 15010G18KT 6SM SHRA VCTS OVC012CB FM232200 17014G22KT 6SM SHRA VCTS OVC025CB
TAF
KSDF 222328Z 2300/2406 08009KT P6SM OVC060 TEMPO 2304/2306 BKN026 FM230600 09005KT P6SM OVC022 FM230800 09005KT P6SM -SHRA OVC015 FM231200 11006KT 5SM -SHRA VCTS BKN008 OVC012CB FM231800 15010G18KT 6SM SHRA VCTS OVC012CB FM232200 17014G22KT 6SM SHRA VCTS OVC025CB =

KSDF Operations

Calm Wind Configuration is runways 17L and 17R.

Runway 17L typically departs north and east.

Runway 17R typicall departs south and west.

 

JSN Epic template designed by JoomlaShine.com